Terminal Aerodrome Forecast
Issued by NWS Tampa Bay Area, FL

Home | Current Version | Previous Version | Text Only | Print | Product List | Glossary On
Versions: 1 2 3 4 5 6 7 8 9 10 11 12 13 14
616
FTUS42 KTBW 100538
TAFFMY
TAF
KFMY 100538Z 1006/1106 03010KT P6SM SCT040 BKN200
     FM101800 06012G20KT P6SM BKN050 BKN200
     FM110100 07010KT P6SM BKN100=

USA.gov is the U.S. government's official web portal to all federal, state and local government web resources and services.